Terminal Aerodrome Forecast
Issued by NWS

Home | Current Version | Previous Version | Text Only | Print | Product List | Glossary On
Versions: 1 2 3 4 5 6 7 8 9 10 11 12 13 14 15 16 17 18
000
FTUS43 KFGF 082138 AAA
TAFBJI
TAF AMD
KBJI 082138Z 0822/0918 31013KT P6SM -SN OVC025
      TEMPO 0822/0824 4SM -SN BKN015
     FM090100 31009KT P6SM OVC015=

USA.gov is the U.S. government's official web portal to all federal, state and local government web resources and services.